DWA339 RJFK-RJNS
Flight info
| Callsign | DWA339 |
|---|---|
| Flight time | 1h 11m |
| Altitude | 39000 |
| Route | MIDAI M750 MUKEP Y891 OVSUN/N0446F380 Y893 IGMIS Y57 MOSLO |
| Aircraft | A339/H-SADE1E2E3GHIJ3J5M1P2RWXY/LB2D1 |
Departure
| Time | 2026-05-03 22:04 |
|---|---|
| Airport | Kagoshima Airport (RJFK) |
Arrival
| Time | 2026-05-03 23:15 |
|---|---|
| Airport | Mount Fuji Shizuoka Airport (RJNS) |
| Time | Latitude | Longitude | Altitude | Speed | Heading |
|---|---|---|---|---|---|
| 2026-05-03 21:53 | 31.80485 | 130.71445 | 908 ft | 0 kts | 240° |
| 2026-05-03 21:56 | 31.80485 | 130.71446 | 908 ft | 0 kts | 240° |
| 2026-05-03 21:57 | 31.80492 | 130.71460 | 908 ft | 2 kts | 240° |
| 2026-05-03 21:57 | 31.80499 | 130.71476 | 908 ft | 2 kts | 240° |
| 2026-05-03 21:57 | 31.80507 | 130.71491 | 908 ft | 2 kts | 240° |
| 2026-05-03 21:57 | 31.80514 | 130.71506 | 908 ft | 1 kts | 240° |
| 2026-05-03 21:58 | 31.80519 | 130.71516 | 908 ft | 2 kts | 236° |
| 2026-05-03 21:58 | 31.80529 | 130.71529 | 908 ft | 2 kts | 219° |
| 2026-05-03 21:58 | 31.80541 | 130.71539 | 908 ft | 2 kts | 206° |
| 2026-05-03 21:58 | 31.80555 | 130.71546 | 908 ft | 2 kts | 193° |
| 2026-05-03 21:59 | 31.80570 | 130.71548 | 908 ft | 2 kts | 180° |
| 2026-05-03 21:59 | 31.80585 | 130.71547 | 908 ft | 2 kts | 167° |
| 2026-05-03 21:59 | 31.80599 | 130.71541 | 908 ft | 2 kts | 154° |
| 2026-05-03 21:59 | 31.80605 | 130.71538 | 908 ft | 1 kts | 150° |
| 2026-05-03 22:00 | 31.80606 | 130.71537 | 908 ft | 0 kts | 150° |
| 2026-05-03 22:01 | 31.80605 | 130.71537 | 908 ft | 0 kts | 150° |
| 2026-05-03 22:01 | 31.80590 | 130.71547 | 908 ft | 4 kts | 150° |
| 2026-05-03 22:01 | 31.80544 | 130.71578 | 908 ft | 10 kts | 150° |
| 2026-05-03 22:01 | 31.80461 | 130.71634 | 908 ft | 17 kts | 150° |
| 2026-05-03 22:02 | 31.80339 | 130.71715 | 908 ft | 23 kts | 150° |
| 2026-05-03 22:02 | 31.80178 | 130.71822 | 908 ft | 29 kts | 149° |
| 2026-05-03 22:02 | 31.79983 | 130.71958 | 907 ft | 36 kts | 150° |
| 2026-05-03 22:02 | 31.79741 | 130.72120 | 907 ft | 41 kts | 151° |
| 2026-05-03 22:03 | 31.79522 | 130.72270 | 907 ft | 26 kts | 140° |
| 2026-05-03 22:03 | 31.79537 | 130.72433 | 907 ft | 16 kts | 46° |
| 2026-05-03 22:03 | 31.79599 | 130.72437 | 907 ft | 4 kts | 321° |
| 2026-05-03 22:03 | 31.79706 | 130.72367 | 907 ft | 48 kts | 330° |
| 2026-05-03 22:04 | 31.80205 | 130.72029 | 908 ft | 114 kts | 330° |
| 2026-05-03 22:04 | 31.81049 | 130.71453 | 993 ft | 158 kts | 328° |
| 2026-05-03 22:04 | 31.81970 | 130.70864 | 1758 ft | 147 kts | 328° |
| 2026-05-03 22:04 | 31.82885 | 130.70419 | 2472 ft | 147 kts | 348° |
| 2026-05-03 22:05 | 31.83900 | 130.70823 | 2971 ft | 176 kts | 37° |
| 2026-05-03 22:05 | 31.84454 | 130.72215 | 3412 ft | 208 kts | 81° |
| 2026-05-03 22:05 | 31.84437 | 130.73986 | 3860 ft | 227 kts | 91° |
| 2026-05-03 22:05 | 31.84362 | 130.75043 | 4106 ft | 238 kts | 92° |
| 2026-05-03 22:06 | 31.84209 | 130.77045 | 4624 ft | 254 kts | 92° |
| 2026-05-03 22:06 | 31.84075 | 130.79137 | 5320 ft | 261 kts | 92° |
| 2026-05-03 22:06 | 31.83591 | 130.81190 | 6044 ft | 267 kts | 124° |
| 2026-05-03 22:06 | 31.82308 | 130.82690 | 6790 ft | 262 kts | 153° |
| 2026-05-03 22:07 | 31.80751 | 130.83793 | 7532 ft | 263 kts | 158° |
| 2026-05-03 22:07 | 31.79156 | 130.84846 | 8297 ft | 265 kts | 159° |
| 2026-05-03 22:07 | 31.77556 | 130.85927 | 9062 ft | 268 kts | 160° |
| 2026-05-03 22:07 | 31.75957 | 130.87038 | 9807 ft | 269 kts | 160° |
| 2026-05-03 22:08 | 31.74351 | 130.88170 | 10591 ft | 270 kts | 160° |
| 2026-05-03 22:08 | 31.72756 | 130.89321 | 11375 ft | 270 kts | 161° |
| 2026-05-03 22:08 | 31.71160 | 130.90473 | 12114 ft | 271 kts | 161° |
| 2026-05-03 22:08 | 31.69569 | 130.91615 | 12905 ft | 269 kts | 163° |
| 2026-05-03 22:09 | 31.67982 | 130.92754 | 13679 ft | 268 kts | 163° |
| 2026-05-03 22:09 | 31.66399 | 130.93889 | 14383 ft | 270 kts | 164° |
| 2026-05-03 22:09 | 31.64799 | 130.95031 | 15065 ft | 271 kts | 164° |
| 2026-05-03 22:10 | 31.61886 | 130.98039 | 16305 ft | 314 kts | 128° |
| 2026-05-03 22:10 | 31.61295 | 131.00615 | 16802 ft | 344 kts | 102° |
| 2026-05-03 22:10 | 31.61213 | 131.03425 | 17434 ft | 348 kts | 97° |
| 2026-05-03 22:10 | 31.61224 | 131.06292 | 17861 ft | 359 kts | 97° |
| 2026-05-03 22:11 | 31.61218 | 131.09279 | 18148 ft | 375 kts | 97° |
| 2026-05-03 22:11 | 31.61168 | 131.12385 | 18429 ft | 390 kts | 98° |
| 2026-05-03 22:11 | 31.61088 | 131.15604 | 18786 ft | 403 kts | 98° |
| 2026-05-03 22:11 | 31.60995 | 131.18942 | 19055 ft | 419 kts | 98° |
| 2026-05-03 22:12 | 31.60905 | 131.22412 | 19309 ft | 434 kts | 97° |
| 2026-05-03 22:12 | 31.60818 | 131.26011 | 19554 ft | 450 kts | 97° |
| 2026-05-03 22:12 | 31.60729 | 131.29728 | 19862 ft | 466 kts | 97° |
| 2026-05-03 22:12 | 31.60645 | 131.33568 | 20104 ft | 480 kts | 95° |
| 2026-05-03 22:13 | 31.61029 | 131.37521 | 20342 ft | 502 kts | 76° |
| 2026-05-03 22:13 | 31.62463 | 131.41269 | 20806 ft | 508 kts | 59° |
| 2026-05-03 22:13 | 31.64307 | 131.44791 | 21438 ft | 509 kts | 56° |
| 2026-05-03 22:13 | 31.66181 | 131.48269 | 22297 ft | 503 kts | 57° |
| 2026-05-03 22:14 | 31.68016 | 131.51700 | 23224 ft | 494 kts | 58° |
| 2026-05-03 22:14 | 31.69791 | 131.55089 | 24166 ft | 486 kts | 57° |
| 2026-05-03 22:14 | 31.71520 | 131.58431 | 25128 ft | 477 kts | 57° |
| 2026-05-03 22:14 | 31.73217 | 131.61734 | 25882 ft | 474 kts | 58° |
| 2026-05-03 22:15 | 31.74916 | 131.65051 | 26401 ft | 477 kts | 58° |
| 2026-05-03 22:15 | 31.76622 | 131.68404 | 26853 ft | 481 kts | 59° |
| 2026-05-03 22:15 | 31.78339 | 131.71779 | 27279 ft | 485 kts | 59° |
| 2026-05-03 22:15 | 31.80069 | 131.75190 | 27713 ft | 489 kts | 59° |
| 2026-05-03 22:16 | 31.81809 | 131.78628 | 28157 ft | 493 kts | 58° |
| 2026-05-03 22:16 | 31.83571 | 131.82094 | 28593 ft | 496 kts | 59° |
| 2026-05-03 22:16 | 31.85338 | 131.85579 | 29041 ft | 499 kts | 59° |
| 2026-05-03 22:16 | 31.87117 | 131.89089 | 29506 ft | 502 kts | 59° |
| 2026-05-03 22:17 | 31.88890 | 131.92604 | 30108 ft | 501 kts | 58° |
| 2026-05-03 22:17 | 31.90664 | 131.96116 | 30636 ft | 502 kts | 59° |
| 2026-05-03 22:17 | 31.92442 | 131.99649 | 31074 ft | 504 kts | 58° |
| 2026-05-03 22:17 | 31.94236 | 132.03198 | 31456 ft | 508 kts | 58° |
| 2026-05-03 22:18 | 31.96042 | 132.06775 | 31845 ft | 511 kts | 58° |
| 2026-05-03 22:18 | 31.97857 | 132.10378 | 32250 ft | 514 kts | 58° |
| 2026-05-03 22:18 | 31.99676 | 132.14003 | 32671 ft | 516 kts | 58° |
| 2026-05-03 22:18 | 32.01500 | 132.17631 | 33070 ft | 518 kts | 58° |
| 2026-05-03 22:19 | 32.03333 | 132.21283 | 33477 ft | 521 kts | 58° |
| 2026-05-03 22:19 | 32.05178 | 132.24957 | 33889 ft | 523 kts | 58° |
| 2026-05-03 22:19 | 32.07028 | 132.28653 | 34285 ft | 526 kts | 58° |
| 2026-05-03 22:19 | 32.08887 | 132.32365 | 34680 ft | 528 kts | 58° |
| 2026-05-03 22:20 | 32.10751 | 132.36098 | 35042 ft | 531 kts | 58° |
| 2026-05-03 22:20 | 32.12600 | 132.39873 | 35376 ft | 534 kts | 60° |
| 2026-05-03 22:20 | 32.14322 | 132.43763 | 35717 ft | 537 kts | 63° |
| 2026-05-03 22:20 | 32.15994 | 132.47695 | 36038 ft | 539 kts | 63° |
| 2026-05-03 22:21 | 32.17661 | 132.51658 | 36338 ft | 542 kts | 63° |
| 2026-05-03 22:21 | 32.19335 | 132.55646 | 36634 ft | 545 kts | 63° |
| 2026-05-03 22:21 | 32.21019 | 132.59651 | 36940 ft | 547 kts | 63° |
| 2026-05-03 22:21 | 32.22713 | 132.63665 | 37200 ft | 550 kts | 63° |
| 2026-05-03 22:22 | 32.24421 | 132.67709 | 37435 ft | 552 kts | 63° |
| 2026-05-03 22:22 | 32.26134 | 132.71763 | 37664 ft | 554 kts | 64° |
| 2026-05-03 22:22 | 32.27845 | 132.75824 | 37982 ft | 554 kts | 63° |
| 2026-05-03 22:22 | 32.29552 | 132.79890 | 38294 ft | 555 kts | 64° |
| 2026-05-03 22:23 | 32.31266 | 132.83967 | 38549 ft | 556 kts | 63° |
| 2026-05-03 22:23 | 32.32978 | 132.88046 | 38794 ft | 557 kts | 64° |
| 2026-05-03 22:23 | 32.34700 | 132.92146 | 38812 ft | 559 kts | 64° |
| 2026-05-03 22:24 | 32.38137 | 133.00351 | 38813 ft | 558 kts | 63° |
| 2026-05-03 22:24 | 32.41571 | 133.08573 | 38809 ft | 560 kts | 64° |
| 2026-05-03 22:25 | 32.45001 | 133.16797 | 38804 ft | 558 kts | 64° |
| 2026-05-03 22:25 | 32.48416 | 133.25005 | 38806 ft | 558 kts | 64° |
| 2026-05-03 22:26 | 32.51828 | 133.33229 | 38800 ft | 558 kts | 64° |
| 2026-05-03 22:26 | 32.55228 | 133.41446 | 38799 ft | 557 kts | 64° |
| 2026-05-03 22:27 | 32.58626 | 133.49675 | 38792 ft | 557 kts | 64° |
| 2026-05-03 22:27 | 32.62023 | 133.57913 | 38790 ft | 558 kts | 64° |
| 2026-05-03 22:28 | 32.65408 | 133.66153 | 38786 ft | 557 kts | 65° |
| 2026-05-03 22:28 | 32.68794 | 133.74391 | 38784 ft | 556 kts | 65° |
| 2026-05-03 22:29 | 32.72163 | 133.82634 | 38782 ft | 556 kts | 65° |
| 2026-05-03 22:29 | 32.75528 | 133.90866 | 38780 ft | 556 kts | 65° |
| 2026-05-03 22:30 | 32.78884 | 133.99111 | 38774 ft | 556 kts | 65° |
| 2026-05-03 22:30 | 32.82072 | 134.07423 | 38772 ft | 554 kts | 71° |
| 2026-05-03 22:31 | 32.84484 | 134.16052 | 38773 ft | 552 kts | 76° |
| 2026-05-03 22:31 | 32.86615 | 134.24799 | 38779 ft | 553 kts | 77° |
| 2026-05-03 22:32 | 32.88762 | 134.33557 | 38778 ft | 553 kts | 77° |
| 2026-05-03 22:32 | 32.90921 | 134.42301 | 38771 ft | 553 kts | 76° |
| 2026-05-03 22:33 | 32.93091 | 134.51068 | 38773 ft | 554 kts | 76° |
| 2026-05-03 22:33 | 32.95256 | 134.59828 | 38771 ft | 554 kts | 76° |
| 2026-05-03 22:34 | 32.97409 | 134.68600 | 38757 ft | 553 kts | 77° |
| 2026-05-03 22:34 | 32.99489 | 134.77371 | 38761 ft | 551 kts | 80° |
| 2026-05-03 22:35 | 33.00850 | 134.86276 | 38758 ft | 546 kts | 88° |
| 2026-05-03 22:35 | 33.01787 | 134.95236 | 38759 ft | 547 kts | 88° |
| 2026-05-03 22:36 | 33.02722 | 135.04181 | 38749 ft | 546 kts | 88° |
| 2026-05-03 22:36 | 33.03689 | 135.13142 | 38746 ft | 548 kts | 88° |
| 2026-05-03 22:37 | 33.04645 | 135.22103 | 38743 ft | 547 kts | 88° |
| 2026-05-03 22:37 | 33.05597 | 135.31060 | 38742 ft | 547 kts | 86° |
| 2026-05-03 22:38 | 33.06542 | 135.40027 | 38739 ft | 547 kts | 87° |
| 2026-05-03 22:38 | 33.07485 | 135.48995 | 38745 ft | 547 kts | 87° |
| 2026-05-03 22:39 | 33.08416 | 135.57958 | 38739 ft | 547 kts | 87° |
| 2026-05-03 22:39 | 33.09344 | 135.66936 | 38732 ft | 545 kts | 87° |
| 2026-05-03 22:40 | 33.10263 | 135.75905 | 38730 ft | 546 kts | 88° |
| 2026-05-03 22:40 | 33.11169 | 135.84873 | 38732 ft | 547 kts | 87° |
| 2026-05-03 22:41 | 33.12078 | 135.93850 | 38730 ft | 547 kts | 87° |
| 2026-05-03 22:41 | 33.12980 | 136.02827 | 38723 ft | 546 kts | 86° |
| 2026-05-03 22:42 | 33.13872 | 136.11783 | 38723 ft | 546 kts | 87° |
| 2026-05-03 22:42 | 33.14758 | 136.20732 | 38730 ft | 545 kts | 87° |
| 2026-05-03 22:43 | 33.15638 | 136.29678 | 38738 ft | 544 kts | 88° |
| 2026-05-03 22:43 | 33.16504 | 136.38616 | 38730 ft | 544 kts | 88° |
| 2026-05-03 22:44 | 33.17366 | 136.47549 | 38727 ft | 543 kts | 87° |
| 2026-05-03 22:44 | 33.18222 | 136.56471 | 38717 ft | 542 kts | 88° |
| 2026-05-03 22:45 | 33.19067 | 136.65376 | 38720 ft | 542 kts | 88° |
| 2026-05-03 22:45 | 33.19907 | 136.74277 | 38716 ft | 541 kts | 88° |
| 2026-05-03 22:46 | 33.20737 | 136.83168 | 38715 ft | 541 kts | 88° |
| 2026-05-03 22:46 | 33.21565 | 136.92071 | 38722 ft | 541 kts | 88° |
| 2026-05-03 22:47 | 33.22385 | 137.00963 | 38708 ft | 540 kts | 88° |
| 2026-05-03 22:47 | 33.23379 | 137.09831 | 38583 ft | 542 kts | 82° |
| 2026-05-03 22:47 | 33.24235 | 137.14226 | 37799 ft | 550 kts | 77° |
| 2026-05-03 22:48 | 33.25299 | 137.18627 | 36771 ft | 557 kts | 75° |
| 2026-05-03 22:48 | 33.26436 | 137.23046 | 36086 ft | 556 kts | 74° |
| 2026-05-03 22:48 | 33.27571 | 137.27424 | 35684 ft | 549 kts | 75° |
| 2026-05-03 22:48 | 33.28680 | 137.31750 | 35249 ft | 544 kts | 75° |
| 2026-05-03 22:49 | 33.29769 | 137.36044 | 34768 ft | 540 kts | 75° |
| 2026-05-03 22:49 | 33.30837 | 137.40305 | 34258 ft | 536 kts | 75° |
| 2026-05-03 22:49 | 33.31891 | 137.44549 | 33779 ft | 532 kts | 75° |
| 2026-05-03 22:49 | 33.32937 | 137.48776 | 33293 ft | 529 kts | 76° |
| 2026-05-03 22:50 | 33.33975 | 137.52974 | 32806 ft | 526 kts | 75° |
| 2026-05-03 22:50 | 33.35003 | 137.57137 | 32358 ft | 522 kts | 75° |
| 2026-05-03 22:50 | 33.36024 | 137.61275 | 31897 ft | 520 kts | 75° |
| 2026-05-03 22:50 | 33.37045 | 137.65407 | 31446 ft | 516 kts | 76° |
| 2026-05-03 22:51 | 33.38054 | 137.69507 | 30993 ft | 513 kts | 76° |
| 2026-05-03 22:51 | 33.39056 | 137.73572 | 30563 ft | 509 kts | 76° |
| 2026-05-03 22:51 | 33.40048 | 137.77616 | 30124 ft | 506 kts | 76° |
| 2026-05-03 22:51 | 33.41028 | 137.81629 | 29667 ft | 503 kts | 76° |
| 2026-05-03 22:52 | 33.42000 | 137.85619 | 29204 ft | 500 kts | 76° |
| 2026-05-03 22:52 | 33.43016 | 137.89581 | 28756 ft | 498 kts | 71° |
| 2026-05-03 22:52 | 33.44389 | 137.93369 | 28307 ft | 497 kts | 63° |
| 2026-05-03 22:52 | 33.46124 | 137.96939 | 27913 ft | 493 kts | 58° |
| 2026-05-03 22:53 | 33.47956 | 138.00391 | 27511 ft | 490 kts | 57° |
| 2026-05-03 22:53 | 33.49782 | 138.03812 | 27111 ft | 488 kts | 57° |
| 2026-05-03 22:53 | 33.51583 | 138.07226 | 26726 ft | 484 kts | 55° |
| 2026-05-03 22:53 | 33.53764 | 138.10231 | 26300 ft | 475 kts | 34° |
| 2026-05-03 22:54 | 33.56505 | 138.12316 | 25797 ft | 463 kts | 25° |
| 2026-05-03 22:54 | 33.59268 | 138.14268 | 24950 ft | 459 kts | 26° |
| 2026-05-03 22:54 | 33.61975 | 138.16240 | 24099 ft | 455 kts | 26° |
| 2026-05-03 22:54 | 33.64657 | 138.18202 | 23303 ft | 450 kts | 26° |
| 2026-05-03 22:55 | 33.67305 | 138.20135 | 22526 ft | 445 kts | 27° |
| 2026-05-03 22:55 | 33.69931 | 138.22051 | 21780 ft | 439 kts | 26° |
| 2026-05-03 22:55 | 33.72515 | 138.23935 | 21051 ft | 433 kts | 26° |
| 2026-05-03 22:55 | 33.75076 | 138.25798 | 20318 ft | 428 kts | 25° |
| 2026-05-03 22:56 | 33.77617 | 138.27640 | 19542 ft | 425 kts | 26° |
| 2026-05-03 22:56 | 33.80137 | 138.29472 | 18773 ft | 421 kts | 25° |
| 2026-05-03 22:56 | 33.82616 | 138.31277 | 18063 ft | 415 kts | 25° |
| 2026-05-03 22:56 | 33.85069 | 138.33063 | 17345 ft | 410 kts | 25° |
| 2026-05-03 22:57 | 33.87487 | 138.34819 | 16755 ft | 402 kts | 25° |
| 2026-05-03 22:57 | 33.89827 | 138.36525 | 16405 ft | 387 kts | 25° |
| 2026-05-03 22:57 | 33.92095 | 138.38180 | 16093 ft | 378 kts | 25° |
| 2026-05-03 22:57 | 33.94322 | 138.39802 | 15799 ft | 371 kts | 25° |
| 2026-05-03 22:58 | 33.96511 | 138.41399 | 15489 ft | 366 kts | 24° |
| 2026-05-03 22:58 | 33.98673 | 138.42975 | 15227 ft | 364 kts | 25° |
| 2026-05-03 22:58 | 34.00843 | 138.44555 | 14927 ft | 364 kts | 25° |
| 2026-05-03 22:58 | 34.03014 | 138.46136 | 14624 ft | 365 kts | 25° |
| 2026-05-03 22:59 | 34.05184 | 138.47722 | 14333 ft | 365 kts | 25° |
| 2026-05-03 22:59 | 34.07348 | 138.49307 | 14039 ft | 364 kts | 25° |
| 2026-05-03 22:59 | 34.09516 | 138.50893 | 13743 ft | 364 kts | 25° |
| 2026-05-03 22:59 | 34.11682 | 138.52480 | 13443 ft | 363 kts | 25° |
| 2026-05-03 23:00 | 34.13838 | 138.54062 | 13143 ft | 362 kts | 25° |
| 2026-05-03 23:00 | 34.16010 | 138.55658 | 12848 ft | 361 kts | 25° |
| 2026-05-03 23:00 | 34.18156 | 138.57231 | 12551 ft | 360 kts | 25° |
| 2026-05-03 23:00 | 34.20294 | 138.58805 | 12265 ft | 359 kts | 24° |
| 2026-05-03 23:01 | 34.22429 | 138.60370 | 11968 ft | 358 kts | 25° |
| 2026-05-03 23:01 | 34.24569 | 138.61943 | 11654 ft | 358 kts | 25° |
| 2026-05-03 23:01 | 34.25384 | 138.62544 | 11544 ft | 358 kts | 25° |
| 2026-05-03 23:01 | 34.27398 | 138.64026 | 11292 ft | 356 kts | 25° |
| 2026-05-03 23:02 | 34.29545 | 138.65603 | 10996 ft | 355 kts | 26° |
| 2026-05-03 23:02 | 34.31661 | 138.67163 | 10697 ft | 354 kts | 26° |
| 2026-05-03 23:02 | 34.33766 | 138.68714 | 10395 ft | 353 kts | 26° |
| 2026-05-03 23:02 | 34.35867 | 138.70262 | 10102 ft | 350 kts | 25° |
| 2026-05-03 23:03 | 34.38066 | 138.71434 | 9829 ft | 338 kts | 8° |
| 2026-05-03 23:03 | 34.40324 | 138.71999 | 9594 ft | 327 kts | 360° |
| 2026-05-03 23:03 | 34.42572 | 138.72364 | 9333 ft | 324 kts | 358° |
| 2026-05-03 23:03 | 34.44806 | 138.72699 | 9069 ft | 322 kts | 358° |
| 2026-05-03 23:04 | 34.47032 | 138.73053 | 8815 ft | 320 kts | 358° |
| 2026-05-03 23:04 | 34.49237 | 138.73419 | 8573 ft | 318 kts | 359° |
| 2026-05-03 23:04 | 34.51434 | 138.73795 | 8306 ft | 316 kts | 359° |
| 2026-05-03 23:04 | 34.53622 | 138.74182 | 8025 ft | 316 kts | 359° |
| 2026-05-03 23:05 | 34.55805 | 138.74572 | 7768 ft | 314 kts | 359° |
| 2026-05-03 23:05 | 34.57960 | 138.74927 | 7500 ft | 308 kts | 353° |
| 2026-05-03 23:05 | 34.59951 | 138.74521 | 7213 ft | 276 kts | 321° |
| 2026-05-03 23:05 | 34.61281 | 138.73086 | 6959 ft | 245 kts | 291° |
| 2026-05-03 23:06 | 34.61948 | 138.71262 | 6738 ft | 233 kts | 282° |
| 2026-05-03 23:06 | 34.62529 | 138.69428 | 6485 ft | 232 kts | 283° |
| 2026-05-03 23:06 | 34.63131 | 138.67608 | 6237 ft | 231 kts | 284° |
| 2026-05-03 23:06 | 34.63740 | 138.65801 | 5991 ft | 230 kts | 284° |
| 2026-05-03 23:07 | 34.64353 | 138.63997 | 5740 ft | 229 kts | 284° |
| 2026-05-03 23:07 | 34.64958 | 138.62217 | 5489 ft | 227 kts | 285° |
| 2026-05-03 23:07 | 34.65566 | 138.60453 | 5254 ft | 226 kts | 285° |
| 2026-05-03 23:07 | 34.66168 | 138.58697 | 5022 ft | 225 kts | 287° |
| 2026-05-03 23:08 | 34.66769 | 138.56948 | 4779 ft | 225 kts | 287° |
| 2026-05-03 23:08 | 34.67370 | 138.55203 | 4533 ft | 224 kts | 287° |
| 2026-05-03 23:08 | 34.67971 | 138.53455 | 4295 ft | 224 kts | 287° |
| 2026-05-03 23:08 | 34.68573 | 138.51712 | 4063 ft | 223 kts | 288° |
| 2026-05-03 23:09 | 34.70437 | 138.46333 | 3965 ft | 215 kts | 287° |
| 2026-05-03 23:09 | 34.71001 | 138.44698 | 3964 ft | 204 kts | 287° |
| 2026-05-03 23:09 | 34.71527 | 138.43147 | 3977 ft | 193 kts | 288° |
| 2026-05-03 23:09 | 34.72046 | 138.41657 | 3860 ft | 191 kts | 287° |
| 2026-05-03 23:10 | 34.72539 | 138.40216 | 3691 ft | 178 kts | 288° |
| 2026-05-03 23:10 | 34.72993 | 138.38868 | 3542 ft | 167 kts | 287° |
| 2026-05-03 23:10 | 34.73415 | 138.37593 | 3362 ft | 159 kts | 288° |
| 2026-05-03 23:10 | 34.73820 | 138.36362 | 3154 ft | 154 kts | 288° |
| 2026-05-03 23:11 | 34.74209 | 138.35182 | 2969 ft | 146 kts | 287° |
| 2026-05-03 23:11 | 34.74580 | 138.34057 | 2776 ft | 140 kts | 287° |
| 2026-05-03 23:11 | 34.74933 | 138.32986 | 2596 ft | 134 kts | 288° |
| 2026-05-03 23:11 | 34.75280 | 138.31933 | 2424 ft | 134 kts | 288° |
| 2026-05-03 23:12 | 34.75628 | 138.30880 | 2247 ft | 134 kts | 288° |
| 2026-05-03 23:12 | 34.75976 | 138.29833 | 2078 ft | 134 kts | 288° |
| 2026-05-03 23:12 | 34.76325 | 138.28784 | 1911 ft | 134 kts | 288° |
| 2026-05-03 23:12 | 34.76675 | 138.27729 | 1733 ft | 134 kts | 288° |
| 2026-05-03 23:13 | 34.77025 | 138.26675 | 1559 ft | 134 kts | 288° |
| 2026-05-03 23:13 | 34.77374 | 138.25625 | 1382 ft | 133 kts | 289° |
| 2026-05-03 23:13 | 34.77728 | 138.24563 | 1206 ft | 133 kts | 289° |
| 2026-05-03 23:13 | 34.78074 | 138.23520 | 1038 ft | 133 kts | 289° |
| 2026-05-03 23:14 | 34.78259 | 138.22971 | 952 ft | 132 kts | 288° |
| 2026-05-03 23:14 | 34.78462 | 138.22359 | 844 ft | 132 kts | 288° |
| 2026-05-03 23:14 | 34.78814 | 138.21306 | 668 ft | 138 kts | 289° |
| 2026-05-03 23:14 | 34.79166 | 138.20251 | 485 ft | 131 kts | 288° |
| 2026-05-03 23:15 | 34.79478 | 138.19293 | 449 ft | 103 kts | 291° |
| 2026-05-03 23:15 | 34.79684 | 138.18691 | 449 ft | 50 kts | 292° |
| 2026-05-03 23:15 | 34.79790 | 138.18375 | 449 ft | 35 kts | 291° |
| 2026-05-03 23:15 | 34.79832 | 138.18202 | 449 ft | 13 kts | 258° |
| 2026-05-03 23:16 | 34.79783 | 138.18152 | 449 ft | 9 kts | 204° |
| 2026-05-03 23:16 | 34.79722 | 138.18116 | 449 ft | 9 kts | 214° |
| 2026-05-03 23:16 | 34.79665 | 138.18071 | 449 ft | 9 kts | 206° |
| 2026-05-03 23:16 | 34.79602 | 138.18040 | 449 ft | 6 kts | 201° |
| 2026-05-03 23:17 | 34.79585 | 138.18032 | 449 ft | 0 kts | 201° |